Flight Track Log - Related Links

Times and Time Zones

All times are in EDT time to prevent confusion due to time zone crossing. See the EJA820 flight status page for this flight to view local times or setup timezone preferences in your user account.

Time Position Orientation Groundspeed Altitude Reporting Facility
EDT Latitude Longitude Course Direction KTS MPH feet Rate Location/Type
Sun 08:59:27 AM 25.0031 -77.4206 33° Northeast 427 491 2,700  Level Miami Center
Sun 09:00:27 AM 25.0469 -77.3886 33° Northeast 234 269 5,900 2,800 Climbing Miami Center
Sun 09:01:27 AM 25.0822 -77.4622 298° West 47 54 8,300 2,400 Climbing Miami Center
Sun 09:02:27 AM 25.1111 -77.5497 290° West 212 244 10,700 2,200 Climbing Miami Center
Sun 09:03:27 AM 25.1608 -77.6303 304° West 260 299 12,700 2,250 Climbing Miami Center
Sun 09:04:27 AM 25.2208 -77.7133 309° West 299 344 15,200 2,300 Climbing Miami Center
Sun 09:05:27 AM 25.2769 -77.7919 308° West 316 364 17,300 1,900 Climbing Miami Center
Sun 09:06:27 AM 25.3328 -77.8681 309° West 326 375 19,000 1,850 Climbing Miami Center
Sun 09:07:27 AM 25.3928 -77.9469 310° West 326 375 21,000 1,900 Climbing Miami Center
Sun 09:08:27 AM 25.4508 -78.0256 309° West 326 375 22,800 1,000 Climbing Miami Center
Sun 09:09:27 AM 25.5086 -78.1114 307° West 333 383 23,000 700 Climbing Miami Center
Sun 09:10:27 AM 25.5767 -78.2019 310° West 359 413 24,200 1,350 Climbing Miami Center
Sun 09:11:27 AM 25.6428 -78.2881 310° West 364 419 25,700 1,450 Climbing Miami Center
Sun 09:12:27 AM 25.7067 -78.3764 309° West 371 427 27,100 1,450 Climbing Miami Center
Sun 09:13:27 AM 25.7622 -78.4694 304° West 371 427 28,600 1,500 Climbing Miami Center
Sun 09:14:27 AM 25.8153 -78.5647 302° West 365 420 30,100 1,550 Climbing Miami Center
Sun 09:15:27 AM 25.8708 -78.6578 304° West 364 419 31,700 1,600 Climbing Miami Center
Sun 09:16:27 AM 25.9219 -78.7464 303° West 364 419 33,300 1,150 Climbing Miami Center
Sun 09:17:27 AM 25.9878 -78.8214 314° West 348 400 34,000 350 Climbing Miami Center
Sun 09:18:27 AM 26.0706 -78.8736 330° Northwest 348 400 34,000  Level Miami Center
Sun 09:19:27 AM 26.1617 -78.9378 328° Northwest 372 428 34,000 500 Level Miami Center
Sun 09:20:27 AM 26.2547 -78.9994 329° Northwest 385 443 35,000 1,000 Climbing Miami Center
Sun 09:21:27 AM 26.3478 -79.0614 329° Northwest 390 449 36,000 1,150 Climbing Miami Center
Sun 09:22:27 AM 26.4389 -79.1236 329° Northwest 385 443 37,300 1,250 Climbing Miami Center
Sun 09:23:27 AM 26.5256 -79.1833 328° Northwest 380 437 38,500 850 Climbing Miami Center
Sun 09:24:27 AM 26.6125 -79.2408 329° Northwest 374 430 39,000 250 Climbing Miami Center
Sun 09:25:27 AM 26.7053 -79.3031 329° Northwest 374 430 39,000  Level Miami Center
Sun 09:26:27 AM 26.7961 -79.3678 328° Northwest 385 443 39,000  Level Miami Center
Sun 09:27:27 AM 26.8892 -79.4281 330° Northwest 385 443 39,000  Level Miami Center
Sun 09:28:27 AM 26.9711 -79.5114 318° Northwest 385 443 39,000  Level Miami Center
Sun 09:29:27 AM 27.0486 -79.6111 311° West 385 443 39,000  Level Miami Center
Sun 09:30:27 AM 27.1200 -79.6969 313° West 385 443 39,000  Level Miami Center
Sun 09:31:27 AM 27.1786 -79.7964 304° West 390 449 39,000 -600 Level Miami Center
Sun 09:32:27 AM 27.2417 -79.8819 310° West 390 449 37,800 -1,600 Descending Miami Center
Sun 09:33:27 AM 27.3086 -79.9750 309° West 390 449 35,800 -1,950 Descending Miami Center
Sun 09:34:27 AM 27.3775 -80.0728 308° West 395 455 33,900 -1,900 Descending Miami Center
Sun 09:35:27 AM 27.4442 -80.1658 309° West 395 455 32,000 -1,850 Descending Miami Center
Sun 09:36:27 AM 27.5172 -80.2664 309° West 402 463 30,200 -1,850 Descending Miami Center
Sun 09:37:27 AM 27.5878 -80.3667 308° West 402 463 28,300 -1,600 Descending Miami Center
Sun 09:38:27 AM 27.6606 -80.4675 309° West 408 470 27,000 -650 Descending Miami Center
Sun 09:39:27 AM 27.7439 -80.5569 316° Northwest 408 470 27,000  Level Miami Center
Sun 09:40:27 AM 27.8314 -80.6419 319° Northwest 408 470 27,000  Level Miami Center
Sun 09:41:27 AM 27.9250 -80.7297 320° Northwest 419 482 27,000 -150 Level Miami Center
Sun 09:42:27 AM 28.0083 -80.8100 320° Northwest 419 482 26,700 -900 Descending Miami Center
Sun 09:43:27 AM 28.0936 -80.8931 319° Northwest 419 482 25,200 -1,700 Descending Miami Center
Sun 09:44:27 AM 28.1831 -80.9786 320° Northwest 419 482 23,300 -1,100 Descending Miami Center
Sun 09:45:27 AM 28.2642 -81.0594 319° Northwest 406 467 23,000 -88 Descending Miami Center
Sun 09:47:52 AM 28.4714 -81.2678 319° Northwest 398 458 23,000  Level Jacksonville Center
Sun 09:48:52 AM 28.5539 -81.3469 320° Northwest 393 452 23,000 -650 Level Jacksonville Center
Sun 09:49:52 AM 28.6403 -81.4236 322° Northwest 393 452 21,700 -1,650 Descending Jacksonville Center
Sun 09:50:52 AM 28.7508 -81.4197 North 364 419 19,700 -1,850 Descending Jacksonville Center
Sun 09:51:52 AM 28.8531 -81.4181 North 364 419 18,000 -1,000 Descending Jacksonville Center
Sun 09:52:52 AM 28.9578 -81.4356 352° North 371 427 17,700 -550 Descending Jacksonville Center
Sun 09:53:52 AM 29.0661 -81.4411 357° North 377 434 16,900 -1,150 Descending Jacksonville Center
Sun 09:54:52 AM 29.1664 -81.4300 North 372 428 15,400 -1,630 Descending Jacksonville Center
Sun 09:55:13 AM 29.2039 -81.4294 North 368 423 14,700 -1,900 Descending Jacksonville Center
Sun 09:55:52 AM 29.2664 -81.4214 North 362 417 13,500 -1,869 Descending Jacksonville Center
Sun 09:56:14 AM 29.3039 -81.4186 North 363 418 12,800 -1,600 Descending Jacksonville Center
Sun 09:56:52 AM 29.3644 -81.4081 North 362 417 11,900 -1,700 Descending Jacksonville Center
Sun 09:57:14 AM 29.3978 -81.4053 North 327 376 11,100 -2,000 Descending Jacksonville Center
Sun 09:57:52 AM 29.4497 -81.3997 North 335 386 9,900 -1,967 Descending Jacksonville Center
Sun 09:58:15 AM 29.4811 -81.3967 North 294 338 9,100 -2,000 Descending Jacksonville Center
Sun 09:58:52 AM 29.5311 -81.3911 North 310 357 7,900 -1,967 Descending Jacksonville Center
Sun 09:59:16 AM 29.5603 -81.3883 North 285 328 7,100 -2,000 Descending Jacksonville Center
Sun 09:59:52 AM 29.6083 -81.3828 North 292 336 5,900 -1,869 Descending Jacksonville Center
Sun 10:00:17 AM 29.6375 -81.3778 North 276 318 5,200 -1,000 Descending Jacksonville Center
Sun 10:00:52 AM 29.6833 -81.3744 North 280 322 4,900 -154 Descending Jacksonville Center
Sun 10:01:35 AM 29.7292 -81.3667 North 222 255 5,000 -100 Climbing Jacksonville Center
Sun 10:01:52 AM 29.7481 -81.3664 North 251 289 4,800 -1,672 Descending Jacksonville Center
Sun 10:02:36 AM 29.7939 -81.3656 North 238 274 3,300 -1,800 Descending Jacksonville Center
Sun 10:02:52 AM 29.8106 -81.3703 346° North 233 268 3,000 -689 Descending Jacksonville Center
Sun 10:03:37 AM 29.8569 -81.3933 337° Northwest 232 267 2,600 -600 Descending Jacksonville Center
Sun 10:03:52 AM 29.8694 -81.4028 327° Northwest 221 254 2,400 -689 Descending Jacksonville Center
Sun 10:04:38 AM 29.9133 -81.4069 355° North 192 221 1,900 -584 Descending Jacksonville Center
Sun 10:05:45 AM 29.9656 -81.3989 North 171 197 1,300 -689 Descending Jacksonville Center
Sun 10:06:40 AM 29.9778 -81.3725 62° Northeast 106 122 500 5,055 Descending Jacksonville Center
Sun 10:07:52 AM 30.0425 -81.3689 North 148 170 12,000 9,583 Climbing Jacksonville Center

Login

Don't have an account? Register now (free) for customized features, flight alerts, and more!